Time,TemperatureF,DewpointF,PressureIn,WindDirection,WindDirectionDegrees,WindSpeedMPH,WindSpeedGustMPH,Humidity,HourlyPrecipIn,Conditions,Clouds,dailyrainin,SoftwareType,DateUTC
2013-05-09 00:01:00,60.1,59.0,30.02,SSE,167,0.0,1.0,96,0.00,,,0.20,meteohub,2013-05-09 04:01:00,
2013-05-09 00:03:00,60.1,59.0,30.02,SSE,167,0.0,1.0,96,0.00,,,0.20,meteohub,2013-05-09 04:03:00,
2013-05-09 00:08:00,60.1,59.0,30.02,SSE,167,0.0,1.0,96,0.00,,,0.00,meteohub,2013-05-09 04:08:00,
2013-05-09 00:13:00,60.1,59.0,30.02,SSE,167,0.0,1.0,96,0.00,,,0.00,meteohub,2013-05-09 04:13:00,
2013-05-09 00:18:00,60.1,59.0,30.02,SSE,167,0.0,1.0,96,0.00,,,0.00,meteohub,2013-05-09 04:18:00,
2013-05-09 00:23:00,60.1,59.0,30.02,SSE,167,0.0,0.0,96,0.00,,,0.00,meteohub,2013-05-09 04:23:00,
2013-05-09 00:28:00,60.1,59.0,30.02,SSE,167,0.0,1.0,96,0.00,,,0.00,meteohub,2013-05-09 04:28:00,
2013-05-09 00:33:00,59.9,58.8,30.02,SSE,167,0.0,1.0,96,0.00,,,0.00,meteohub,2013-05-09 04:33:00,
2013-05-09 00:38:00,59.9,58.8,30.02,SSE,167,0.0,1.0,96,0.00,,,0.00,meteohub,2013-05-09 04:38:00,
2013-05-09 00:43:00,60.1,59.0,30.02,SSE,167,0.0,0.0,96,0.00,,,0.00,meteohub,2013-05-09 04:43:00,
2013-05-09 00:48:00,59.9,58.8,30.01,SSE,167,0.0,0.0,96,0.00,,,0.00,meteohub,2013-05-09 04:48:00,
2013-05-09 00:53:00,59.9,58.8,30.01,SSE,167,0.0,0.0,96,0.00,,,0.00,meteohub,2013-05-09 04:53:00,
2013-05-09 00:58:00,59.7,58.6,30.01,SSE,167,0.0,0.0,96,0.00,,,0.00,meteohub,2013-05-09 04:58:00,
2013-05-09 01:03:00,59.7,58.6,30.01,SSE,167,0.0,0.0,96,0.00,,,0.00,meteohub,2013-05-09 05:03:00,
2013-05-09 01:08:00,59.5,58.5,30.01,SSE,167,0.0,0.0,96,0.00,,,0.00,meteohub,2013-05-09 05:08:00,
2013-05-09 01:13:00,59.5,58.5,30.01,SSE,167,0.0,0.0,96,0.00,,,0.00,meteohub,2013-05-09 05:13:00,
2013-05-09 01:18:00,59.5,58.5,30.01,SSE,167,0.0,0.0,96,0.00,,,0.00,meteohub,2013-05-09 05:18:00,
2013-05-09 01:23:00,59.5,58.5,30.00,SSE,167,0.0,0.0,96,0.00,,,0.00,meteohub,2013-05-09 05:23:00,
2013-05-09 01:28:00,59.5,58.5,30.00,SSE,167,0.0,0.0,96,0.00,,,0.00,meteohub,2013-05-09 05:28:00,
2013-05-09 01:33:00,59.5,58.5,30.00,SSE,167,0.0,0.0,96,0.00,,,0.00,meteohub,2013-05-09 05:33:00,
2013-05-09 01:38:00,59.4,58.3,30.00,SSE,167,0.0,0.0,96,0.00,,,0.00,meteohub,2013-05-09 05:38:00,
2013-05-09 01:43:00,59.4,58.3,30.00,SSE,167,0.0,0.0,96,0.00,,,0.00,meteohub,2013-05-09 05:43:00,
2013-05-09 01:48:00,59.2,58.1,29.99,SSE,167,0.0,0.0,96,0.00,,,0.00,meteohub,2013-05-09 05:48:00,
2013-05-09 01:53:00,59.2,58.1,29.99,SSE,167,0.0,0.0,96,0.00,,,0.00,meteohub,2013-05-09 05:53:00,
2013-05-09 01:58:00,59.2,58.1,29.99,SSE,167,0.0,0.0,96,0.00,,,0.00,meteohub,2013-05-09 05:58:00,
2013-05-09 02:03:00,59.0,57.9,29.99,SSE,167,0.0,0.0,96,0.00,,,0.00,meteohub,2013-05-09 06:03:00,
2013-05-09 02:08:00,59.0,57.9,29.99,SSE,167,0.0,0.0,96,0.00,,,0.00,meteohub,2013-05-09 06:08:00,
2013-05-09 02:13:00,58.8,57.7,29.99,SSE,167,0.0,0.0,96,0.00,,,0.00,meteohub,2013-05-09 06:13:00,
2013-05-09 02:18:00,58.8,57.7,29.99,SSE,167,0.0,0.0,96,0.00,,,0.00,meteohub,2013-05-09 06:18:00,
2013-05-09 02:23:00,58.8,57.7,29.99,SSE,167,0.0,0.0,96,0.00,,,0.00,meteohub,2013-05-09 06:23:00,
2013-05-09 02:28:00,58.6,57.6,29.98,SSE,167,0.0,0.0,96,0.00,,,0.00,meteohub,2013-05-09 06:28:00,
2013-05-09 02:33:00,58.6,57.6,29.98,SSE,167,0.0,0.0,96,0.00,,,0.00,meteohub,2013-05-09 06:33:00,
2013-05-09 02:38:00,58.6,57.6,29.98,SSE,167,0.0,0.0,96,0.00,,,0.00,meteohub,2013-05-09 06:38:00,
2013-05-09 02:43:00,58.8,57.7,29.98,SSE,167,0.0,0.0,96,0.00,,,0.00,meteohub,2013-05-09 06:43:00,
2013-05-09 02:48:00,58.8,57.7,29.98,SSE,167,0.0,0.0,96,0.00,,,0.00,meteohub,2013-05-09 06:48:00,
2013-05-09 02:53:00,58.8,57.7,29.98,SSE,167,0.0,0.0,96,0.00,,,0.00,meteohub,2013-05-09 06:53:00,
2013-05-09 02:58:00,58.8,57.7,29.98,SSE,167,0.0,0.0,96,0.00,,,0.00,meteohub,2013-05-09 06:58:00,
2013-05-09 03:03:00,58.6,57.6,29.98,SSE,167,0.0,0.0,96,0.00,,,0.00,meteohub,2013-05-09 07:03:00,
2013-05-09 03:08:00,58.6,57.6,29.98,SSE,167,0.0,0.0,96,0.00,,,0.00,meteohub,2013-05-09 07:08:00,
2013-05-09 03:13:00,58.8,57.7,29.98,SSE,167,0.0,0.0,96,0.00,,,0.00,meteohub,2013-05-09 07:13:00,
2013-05-09 03:18:00,58.8,57.9,29.98,SSE,167,0.0,0.0,97,0.00,,,0.00,meteohub,2013-05-09 07:18:00,
2013-05-09 03:23:00,58.8,57.9,29.98,SSE,167,0.0,0.0,97,0.00,,,0.00,meteohub,2013-05-09 07:23:00,
2013-05-09 03:28:00,58.6,57.6,29.98,SSE,167,0.0,0.0,96,0.00,,,0.00,meteohub,2013-05-09 07:28:00,
2013-05-09 03:33:00,58.8,57.9,29.98,SSE,167,0.0,0.0,97,0.00,,,0.00,meteohub,2013-05-09 07:33:00,
2013-05-09 03:38:00,58.6,57.7,29.98,SSE,167,0.0,0.0,97,0.00,,,0.00,meteohub,2013-05-09 07:38:00,
2013-05-09 03:43:00,58.6,57.7,29.98,SSE,167,0.0,0.0,97,0.00,,,0.00,meteohub,2013-05-09 07:43:00,
2013-05-09 03:48:00,58.5,57.4,29.98,SSE,167,0.0,0.0,96,0.00,,,0.00,meteohub,2013-05-09 07:48:00,
2013-05-09 03:53:00,58.5,57.4,29.97,SSE,167,0.0,0.0,96,0.00,,,0.00,meteohub,2013-05-09 07:53:00,
2013-05-09 03:58:00,58.3,57.2,29.97,SSE,167,0.0,0.0,96,0.00,,,0.00,meteohub,2013-05-09 07:58:00,
2013-05-09 04:03:00,57.9,56.8,29.97,SSE,167,0.0,0.0,96,0.00,,,0.00,meteohub,2013-05-09 08:03:00,
2013-05-09 04:08:00,57.7,56.7,29.96,SSE,167,0.0,0.0,96,0.00,,,0.00,meteohub,2013-05-09 08:08:00,
2013-05-09 04:13:00,57.6,56.5,29.96,SSE,167,0.0,0.0,96,0.00,,,0.00,meteohub,2013-05-09 08:13:00,
2013-05-09 04:18:00,57.4,56.3,29.96,SSE,167,0.0,0.0,96,0.00,,,0.00,meteohub,2013-05-09 08:18:00,
2013-05-09 04:23:00,57.0,55.9,29.96,SSE,167,0.0,0.0,96,0.00,,,0.00,meteohub,2013-05-09 08:23:00,
2013-05-09 04:28:00,56.8,55.8,29.96,SSE,167,0.0,0.0,96,0.00,,,0.00,meteohub,2013-05-09 08:28:00,
2013-05-09 04:33:00,56.8,55.8,29.96,SSE,167,0.0,0.0,96,0.00,,,0.00,meteohub,2013-05-09 08:33:00,
2013-05-09 04:38:00,56.7,55.8,29.96,SSE,167,0.0,0.0,97,0.00,,,0.00,meteohub,2013-05-09 08:38:00,
2013-05-09 04:43:00,56.7,55.6,29.96,SSE,167,0.0,0.0,96,0.00,,,0.00,meteohub,2013-05-09 08:43:00,
2013-05-09 04:48:00,56.5,55.4,29.96,SSE,167,0.0,0.0,96,0.00,,,0.00,meteohub,2013-05-09 08:48:00,
2013-05-09 04:53:00,56.1,55.2,29.96,SSE,167,0.0,0.0,97,0.00,,,0.00,meteohub,2013-05-09 08:53:00,
2013-05-09 04:58:00,55.9,54.9,29.96,SSE,167,0.0,0.0,96,0.00,,,0.00,meteohub,2013-05-09 08:58:00,
2013-05-09 05:03:00,55.9,54.9,29.96,SSE,167,0.0,0.0,96,0.00,,,0.00,meteohub,2013-05-09 09:03:00,
2013-05-09 05:08:00,55.9,55.0,29.96,SSE,167,0.0,0.0,97,0.00,,,0.00,meteohub,2013-05-09 09:08:00,
2013-05-09 05:13:00,55.9,55.0,29.96,SSE,167,0.0,0.0,97,0.00,,,0.00,meteohub,2013-05-09 09:13:00,
2013-05-09 05:18:00,55.9,55.0,29.96,SSE,167,0.0,0.0,97,0.00,,,0.00,meteohub,2013-05-09 09:18:00,
2013-05-09 05:23:00,55.9,55.0,29.96,SSE,167,0.0,0.0,97,0.00,,,0.00,meteohub,2013-05-09 09:23:00,
2013-05-09 05:28:00,55.9,55.0,29.96,SSE,167,0.0,0.0,97,0.00,,,0.00,meteohub,2013-05-09 09:28:00,
2013-05-09 05:33:00,55.8,54.9,29.96,SSE,167,0.0,0.0,97,0.00,,,0.00,meteohub,2013-05-09 09:33:00,
2013-05-09 05:38:00,55.6,54.7,29.96,SSE,167,0.0,0.0,97,0.00,,,0.00,meteohub,2013-05-09 09:38:00,
2013-05-09 05:43:00,55.2,54.3,29.96,SSE,167,0.0,0.0,97,0.00,,,0.00,meteohub,2013-05-09 09:43:00,
2013-05-09 05:48:00,55.0,54.1,29.96,SSE,167,0.0,0.0,97,0.00,,,0.00,meteohub,2013-05-09 09:48:00,
2013-05-09 05:53:00,54.9,54.0,29.96,SSE,167,0.0,0.0,97,0.00,,,0.00,meteohub,2013-05-09 09:53:00,
2013-05-09 05:58:00,55.0,54.1,29.96,SSE,167,0.0,0.0,97,0.00,,,0.00,meteohub,2013-05-09 09:58:00,
2013-05-09 06:03:00,55.2,54.3,29.96,SSE,167,0.0,0.0,97,0.00,,,0.00,meteohub,2013-05-09 10:03:00,
2013-05-09 06:08:00,55.4,54.5,29.97,SSE,167,0.0,0.0,97,0.00,,,0.00,meteohub,2013-05-09 10:08:00,
2013-05-09 06:13:00,55.8,54.9,29.96,SSE,167,0.0,0.0,97,0.00,,,0.00,meteohub,2013-05-09 10:13:00,
2013-05-09 06:18:00,55.9,55.0,29.96,SSE,167,0.0,0.0,97,0.00,,,0.00,meteohub,2013-05-09 10:18:00,
2013-05-09 06:23:00,56.1,55.2,29.96,SSE,167,0.0,0.0,97,0.00,,,0.00,meteohub,2013-05-09 10:23:00,
2013-05-09 06:28:00,56.1,55.2,29.96,SSE,167,0.0,0.0,97,0.00,,,0.00,meteohub,2013-05-09 10:28:00,
2013-05-09 06:33:00,56.5,55.6,29.96,SSE,167,0.0,0.0,97,0.00,,,0.00,meteohub,2013-05-09 10:33:00,
2013-05-09 06:38:00,56.5,55.6,29.96,SSE,167,0.0,0.0,97,0.00,,,0.00,meteohub,2013-05-09 10:38:00,
2013-05-09 06:43:00,56.7,55.8,29.96,SSE,167,0.0,1.0,97,0.00,,,0.00,meteohub,2013-05-09 10:43:00,
2013-05-09 06:48:00,56.7,55.8,29.97,SSE,167,0.0,1.0,97,0.00,,,0.00,meteohub,2013-05-09 10:48:00,
2013-05-09 06:53:00,56.8,55.9,29.97,SSE,167,0.0,0.0,97,0.00,,,0.00,meteohub,2013-05-09 10:53:00,
2013-05-09 06:58:00,56.7,55.8,29.97,SSE,167,0.0,1.0,97,0.00,,,0.00,meteohub,2013-05-09 10:58:00,
2013-05-09 07:03:00,57.0,56.1,29.97,SSE,167,0.0,1.0,97,0.00,,,0.00,meteohub,2013-05-09 11:03:00,
2013-05-09 07:08:00,56.7,55.8,29.97,SSE,167,0.0,1.0,97,0.00,,,0.00,meteohub,2013-05-09 11:08:00,
2013-05-09 07:13:00,56.7,55.8,29.98,SSE,167,0.0,0.0,97,0.00,,,0.00,meteohub,2013-05-09 11:13:00,
2013-05-09 07:18:00,56.7,55.8,29.98,SSE,167,0.0,1.0,97,0.00,,,0.00,meteohub,2013-05-09 11:18:00,
2013-05-09 07:23:00,56.8,55.9,29.98,SSE,167,0.0,1.0,97,0.00,,,0.00,meteohub,2013-05-09 11:23:00,
2013-05-09 07:28:00,56.8,55.9,29.98,SSE,167,0.0,1.0,97,0.00,,,0.00,meteohub,2013-05-09 11:28:00,
2013-05-09 07:33:00,56.7,55.8,29.98,SSE,167,0.0,0.0,97,0.00,,,0.00,meteohub,2013-05-09 11:33:00,
2013-05-09 07:38:00,57.0,56.1,29.97,SSE,167,0.0,0.0,97,0.00,,,0.00,meteohub,2013-05-09 11:38:00,
2013-05-09 07:43:00,57.4,56.5,29.98,SSE,167,0.0,0.0,97,0.00,,,0.00,meteohub,2013-05-09 11:43:00,
2013-05-09 07:48:00,57.6,56.7,29.98,SSE,167,0.0,0.0,97,0.00,,,0.00,meteohub,2013-05-09 11:48:00,
2013-05-09 07:53:00,57.6,56.7,29.98,SSE,167,0.0,0.0,97,0.00,,,0.00,meteohub,2013-05-09 11:53:00,
2013-05-09 07:58:00,57.6,56.7,29.98,SSE,167,0.0,0.0,97,0.00,,,0.00,meteohub,2013-05-09 11:58:00,
2013-05-09 08:03:00,57.7,56.8,29.98,SSE,167,0.0,0.0,97,0.00,,,0.00,meteohub,2013-05-09 12:03:00,
2013-05-09 08:08:00,57.7,56.8,29.98,SSE,167,0.0,0.0,97,0.00,,,0.00,meteohub,2013-05-09 12:08:00,
2013-05-09 08:13:00,57.6,56.7,29.98,SSE,167,0.0,0.0,97,0.00,,,0.00,meteohub,2013-05-09 12:13:00,
2013-05-09 08:18:00,57.6,56.7,29.98,SSE,167,0.0,0.0,97,0.00,,,0.00,meteohub,2013-05-09 12:18:00,
2013-05-09 08:23:00,57.7,56.8,29.98,SSE,167,0.0,0.0,97,0.00,,,0.00,meteohub,2013-05-09 12:23:00,
2013-05-09 08:28:00,57.9,57.0,29.97,SSE,167,0.0,0.0,97,0.00,,,0.00,meteohub,2013-05-09 12:28:00,
2013-05-09 08:33:00,58.5,57.6,29.97,SSE,167,0.0,0.0,97,0.00,,,0.00,meteohub,2013-05-09 12:33:00,
2013-05-09 08:38:00,57.9,57.0,29.98,SSE,167,0.0,0.0,97,0.00,,,0.00,meteohub,2013-05-09 12:38:00,
2013-05-09 08:43:00,57.7,56.8,29.97,SSE,167,0.0,1.0,97,0.00,,,0.00,meteohub,2013-05-09 12:43:00,
2013-05-09 08:48:00,58.3,57.4,29.97,SSE,167,0.0,2.0,97,0.00,,,0.00,meteohub,2013-05-09 12:48:00,
2013-05-09 08:53:00,58.3,57.4,29.97,SSE,167,1.0,2.0,97,0.00,,,0.00,meteohub,2013-05-09 12:53:00,
2013-05-09 08:58:00,58.6,57.7,29.97,SSE,167,1.0,2.0,97,0.00,,,0.00,meteohub,2013-05-09 12:58:00,
2013-05-09 09:03:00,59.4,58.5,29.97,SSE,167,1.0,2.0,97,0.00,,,0.00,meteohub,2013-05-09 13:03:00,
2013-05-09 09:08:00,58.5,57.6,29.97,SE,134,1.0,2.0,97,0.00,,,0.00,meteohub,2013-05-09 13:08:00,
2013-05-09 09:13:00,58.6,57.7,29.97,SE,133,1.0,3.0,97,0.00,,,0.00,meteohub,2013-05-09 13:13:00,
2013-05-09 09:18:00,58.6,57.7,29.97,SE,133,1.0,3.0,97,0.00,,,0.00,meteohub,2013-05-09 13:18:00,
2013-05-09 09:23:00,59.2,58.3,29.97,SE,133,0.0,3.0,97,0.00,,,0.00,meteohub,2013-05-09 13:23:00,
2013-05-09 09:28:00,59.4,58.5,29.96,SE,133,0.0,2.0,97,0.00,,,0.00,meteohub,2013-05-09 13:28:00,
2013-05-09 09:33:00,59.2,58.1,29.96,SE,133,0.0,1.0,96,0.00,,,0.00,meteohub,2013-05-09 13:33:00,
2013-05-09 09:38:00,59.2,58.1,29.96,SE,133,0.0,0.0,96,0.00,,,0.00,meteohub,2013-05-09 13:38:00,
2013-05-09 09:43:00,59.2,58.1,29.96,SE,133,0.0,0.0,96,0.00,,,0.00,meteohub,2013-05-09 13:43:00,
2013-05-09 09:48:00,59.0,57.6,29.96,SE,133,0.0,1.0,95,0.00,,,0.00,meteohub,2013-05-09 13:48:00,
2013-05-09 09:53:00,59.2,57.7,29.96,SE,133,0.0,1.0,95,0.00,,,0.00,meteohub,2013-05-09 13:53:00,
2013-05-09 09:58:00,59.5,57.7,29.96,SE,133,0.0,1.0,94,0.00,,,0.00,meteohub,2013-05-09 13:58:00,
2013-05-09 10:03:00,60.3,58.8,29.96,SE,133,0.0,1.0,95,0.00,,,0.00,meteohub,2013-05-09 14:03:00,
2013-05-09 10:08:00,60.4,58.5,29.96,SE,140,0.0,1.0,93,0.00,,,0.00,meteohub,2013-05-09 14:08:00,
2013-05-09 10:13:00,60.3,57.9,29.96,SE,140,0.0,1.0,92,0.00,,,0.00,meteohub,2013-05-09 14:13:00,
2013-05-09 10:18:00,60.3,57.9,29.96,SE,140,0.0,1.0,92,0.00,,,0.00,meteohub,2013-05-09 14:18:00,
2013-05-09 10:23:00,60.4,57.7,29.96,SE,140,0.0,1.0,91,0.00,,,0.00,meteohub,2013-05-09 14:23:00,
2013-05-09 10:28:00,61.3,58.6,29.96,SE,140,0.0,2.0,91,0.00,,,0.00,meteohub,2013-05-09 14:28:00,
2013-05-09 10:33:00,61.3,58.1,29.96,SE,140,0.0,2.0,89,0.00,,,0.00,meteohub,2013-05-09 14:33:00,
2013-05-09 10:38:00,61.2,57.9,29.96,SE,140,0.0,2.0,89,0.00,,,0.00,meteohub,2013-05-09 14:38:00,
2013-05-09 10:43:00,61.2,57.9,29.96,SSE,155,0.0,0.0,89,0.00,,,0.00,meteohub,2013-05-09 14:43:00,
2013-05-09 10:48:00,60.8,58.1,29.96,SSE,155,0.0,1.0,91,0.00,,,0.00,meteohub,2013-05-09 14:48:00,
2013-05-09 10:53:00,60.6,57.9,29.97,SSE,155,0.0,1.0,91,0.00,,,0.00,meteohub,2013-05-09 14:53:00,
2013-05-09 10:58:00,60.4,57.7,29.96,SSE,155,0.0,1.0,91,0.00,,,0.00,meteohub,2013-05-09 14:58:00,
2013-05-09 11:03:00,60.3,57.9,29.96,SSE,155,0.0,1.0,92,0.00,,,0.00,meteohub,2013-05-09 15:03:00,
2013-05-09 11:08:00,60.4,58.5,29.96,SSE,155,0.0,0.0,93,0.00,,,0.00,meteohub,2013-05-09 15:08:00,
2013-05-09 11:13:00,60.6,58.6,29.96,SSE,155,0.0,0.0,93,0.00,,,0.00,meteohub,2013-05-09 15:13:00,
2013-05-09 11:18:00,61.0,59.2,29.96,SSE,155,0.0,0.0,94,0.01,,,0.01,meteohub,2013-05-09 15:18:00,
2013-05-09 11:23:00,60.4,58.5,29.97,SSE,155,0.0,0.0,93,0.01,,,0.01,meteohub,2013-05-09 15:23:00,
2013-05-09 11:28:00,60.4,58.6,29.96,SSE,155,0.0,1.0,94,0.01,,,0.01,meteohub,2013-05-09 15:28:00,
2013-05-09 11:33:00,60.6,58.8,29.96,SSE,155,0.0,1.0,94,0.02,,,0.02,meteohub,2013-05-09 15:33:00,
2013-05-09 11:38:00,60.3,58.5,29.96,SSE,155,0.0,1.0,94,0.02,,,0.02,meteohub,2013-05-09 15:38:00,
2013-05-09 11:43:00,60.4,58.6,29.96,SSE,155,0.0,1.0,94,0.02,,,0.02,meteohub,2013-05-09 15:43:00,
2013-05-09 11:48:00,60.3,58.3,29.96,SSE,155,0.0,1.0,93,0.02,,,0.02,meteohub,2013-05-09 15:48:00,
2013-05-09 11:53:00,59.7,57.4,29.96,SSE,155,0.0,1.0,92,0.02,,,0.02,meteohub,2013-05-09 15:53:00,
2013-05-09 11:58:00,59.4,57.4,29.96,SSE,155,0.0,1.0,93,0.02,,,0.02,meteohub,2013-05-09 15:58:00,
2013-05-09 12:03:00,59.4,57.6,29.95,SSE,155,0.0,1.0,94,0.02,,,0.02,meteohub,2013-05-09 16:03:00,
2013-05-09 12:08:00,59.4,57.6,29.95,SSE,155,0.0,1.0,94,0.02,,,0.02,meteohub,2013-05-09 16:08:00,
2013-05-09 12:13:00,59.5,58.1,29.94,SSE,155,0.0,1.0,95,0.02,,,0.02,meteohub,2013-05-09 16:13:00,
2013-05-09 12:18:00,59.5,58.1,29.94,SSE,155,0.0,1.0,95,0.02,,,0.03,meteohub,2013-05-09 16:18:00,
2013-05-09 12:23:00,59.5,58.1,29.94,SSE,155,1.0,1.0,95,0.02,,,0.03,meteohub,2013-05-09 16:23:00,
2013-05-09 12:28:00,59.5,58.1,29.95,SSE,155,0.0,1.0,95,0.01,,,0.03,meteohub,2013-05-09 16:28:00,
2013-05-09 12:33:00,59.2,57.7,29.95,SSE,155,0.0,1.0,95,0.01,,,0.03,meteohub,2013-05-09 16:33:00,
2013-05-09 12:38:00,59.4,57.9,29.95,SSE,155,0.0,1.0,95,0.01,,,0.03,meteohub,2013-05-09 16:38:00,
2013-05-09 12:43:00,59.2,57.7,29.94,SSE,155,0.0,0.0,95,0.01,,,0.03,meteohub,2013-05-09 16:43:00,
2013-05-09 12:48:00,59.4,57.9,29.94,SSE,155,0.0,0.0,95,0.01,,,0.03,meteohub,2013-05-09 16:48:00,
2013-05-09 12:53:00,59.5,58.1,29.95,SSE,155,0.0,0.0,95,0.01,,,0.03,meteohub,2013-05-09 16:53:00,
2013-05-09 12:58:00,59.7,58.6,29.95,SSE,155,0.0,0.0,96,0.01,,,0.03,meteohub,2013-05-09 16:58:00,
2013-05-09 13:03:00,60.1,59.0,29.94,SSE,155,0.0,0.0,96,0.01,,,0.03,meteohub,2013-05-09 17:03:00,
2013-05-09 13:08:00,60.1,58.6,29.94,SSE,155,0.0,0.0,95,0.01,,,0.03,meteohub,2013-05-09 17:08:00,
2013-05-09 13:13:00,61.0,59.5,29.94,SSW,198,1.0,0.0,95,0.00,,,0.03,meteohub,2013-05-09 17:13:00,
2013-05-09 13:18:00,61.0,59.2,29.94,South,180,1.0,1.0,94,0.00,,,0.03,meteohub,2013-05-09 17:18:00,
2013-05-09 13:23:00,61.2,59.2,29.94,ESE,109,2.0,2.0,93,0.00,,,0.03,meteohub,2013-05-09 17:23:00,
2013-05-09 13:28:00,61.7,59.0,29.94,ESE,119,2.0,2.0,91,0.00,,,0.03,meteohub,2013-05-09 17:28:00,
2013-05-09 13:33:00,61.5,58.6,29.93,SE,132,2.0,4.0,90,0.00,,,0.03,meteohub,2013-05-09 17:33:00,
2013-05-09 13:38:00,61.5,58.3,29.92,SE,132,2.0,4.0,89,0.00,,,0.03,meteohub,2013-05-09 17:38:00,
2013-05-09 13:43:00,63.0,59.7,29.92,SE,144,2.0,4.0,89,0.00,,,0.03,meteohub,2013-05-09 17:43:00,
2013-05-09 13:48:00,63.3,58.8,29.92,SE,139,2.0,4.0,85,0.00,,,0.03,meteohub,2013-05-09 17:48:00,
2013-05-09 13:53:00,63.3,58.5,29.92,SSW,207,0.0,3.0,84,0.00,,,0.03,meteohub,2013-05-09 17:53:00,
2013-05-09 13:58:00,63.3,57.7,29.92,SSE,153,0.0,3.0,82,0.00,,,0.03,meteohub,2013-05-09 17:58:00,
2013-05-09 14:03:00,63.5,57.9,29.92,South,190,0.0,3.0,82,0.00,,,0.03,meteohub,2013-05-09 18:03:00,
2013-05-09 14:08:00,65.5,60.4,29.92,South,190,0.0,3.0,84,0.00,,,0.03,meteohub,2013-05-09 18:08:00,
2013-05-09 14:13:00,65.7,58.6,29.92,SSE,149,1.0,2.0,78,0.00,,,0.03,meteohub,2013-05-09 18:13:00,
2013-05-09 14:18:00,65.5,57.7,29.91,SE,127,2.0,3.0,76,0.00,,,0.03,meteohub,2013-05-09 18:18:00,
2013-05-09 14:23:00,65.3,57.2,29.91,SE,137,0.0,3.0,75,0.00,,,0.03,meteohub,2013-05-09 18:23:00,
2013-05-09 14:28:00,65.7,57.9,29.91,WNW,286,0.0,3.0,76,0.00,,,0.03,meteohub,2013-05-09 18:28:00,
2013-05-09 14:33:00,64.8,57.4,29.91,SE,126,0.0,3.0,77,0.00,,,0.03,meteohub,2013-05-09 18:33:00,
2013-05-09 14:38:00,65.1,58.8,29.90,SE,127,3.0,3.0,80,0.00,,,0.03,meteohub,2013-05-09 18:38:00,
2013-05-09 14:43:00,65.5,59.2,29.90,East,101,1.0,3.0,80,0.00,,,0.03,meteohub,2013-05-09 18:43:00,
2013-05-09 14:48:00,66.0,58.3,29.91,SE,134,1.0,3.0,76,0.00,,,0.03,meteohub,2013-05-09 18:48:00,
2013-05-09 14:53:00,65.8,57.7,29.90,West,275,1.0,3.0,75,0.00,,,0.03,meteohub,2013-05-09 18:53:00,
2013-05-09 14:58:00,65.5,57.4,29.90,South,190,0.0,3.0,75,0.00,,,0.03,meteohub,2013-05-09 18:58:00,
2013-05-09 15:03:00,65.8,57.0,29.90,WSW,251,1.0,5.0,73,0.00,,,0.03,meteohub,2013-05-09 19:03:00,
2013-05-09 15:08:00,66.4,57.4,29.90,West,268,0.0,5.0,73,0.00,,,0.03,meteohub,2013-05-09 19:08:00,
2013-05-09 15:13:00,66.9,57.6,29.89,West,268,0.0,5.0,72,0.00,,,0.03,meteohub,2013-05-09 19:13:00,
2013-05-09 15:18:00,67.3,58.6,29.89,West,268,0.0,3.0,74,0.00,,,0.03,meteohub,2013-05-09 19:18:00,
2013-05-09 15:23:00,65.5,59.2,29.89,West,268,0.0,2.0,80,0.00,,,0.03,meteohub,2013-05-09 19:23:00,
2013-05-09 15:28:00,64.0,59.4,29.88,West,268,0.0,2.0,85,0.01,,,0.04,meteohub,2013-05-09 19:28:00,
2013-05-09 15:33:00,63.3,59.7,29.88,West,268,0.0,1.0,88,0.01,,,0.04,meteohub,2013-05-09 19:33:00,
2013-05-09 15:38:00,62.4,59.2,29.88,West,268,0.0,0.0,89,0.01,,,0.04,meteohub,2013-05-09 19:38:00,
2013-05-09 15:43:00,62.8,60.1,29.89,West,268,0.0,0.0,91,0.01,,,0.04,meteohub,2013-05-09 19:43:00,
2013-05-09 15:48:00,62.1,59.4,29.89,West,268,0.0,1.0,91,0.02,,,0.05,meteohub,2013-05-09 19:48:00,
2013-05-09 15:53:00,61.9,59.9,29.89,West,268,2.0,2.0,93,0.03,,,0.06,meteohub,2013-05-09 19:53:00,
2013-05-09 15:58:00,61.3,59.4,29.89,West,268,0.0,2.0,93,0.05,,,0.08,meteohub,2013-05-09 19:58:00,
2013-05-09 16:03:00,61.3,59.5,29.88,West,268,0.0,2.0,94,0.05,,,0.08,meteohub,2013-05-09 20:03:00,
2013-05-09 16:08:00,61.2,59.4,29.88,West,268,0.0,2.0,94,0.05,,,0.08,meteohub,2013-05-09 20:08:00,
2013-05-09 16:13:00,61.2,59.7,29.88,West,268,1.0,1.0,95,0.05,,,0.08,meteohub,2013-05-09 20:13:00,
2013-05-09 16:18:00,61.0,59.5,29.88,West,268,0.0,1.0,95,0.05,,,0.08,meteohub,2013-05-09 20:18:00,
2013-05-09 16:23:00,60.6,58.8,29.88,West,268,0.0,1.0,94,0.07,,,0.10,meteohub,2013-05-09 20:23:00,
2013-05-09 16:28:00,60.3,58.5,29.88,West,268,0.0,2.0,94,0.06,,,0.10,meteohub,2013-05-09 20:28:00,
2013-05-09 16:33:00,60.1,58.3,29.88,West,268,0.0,2.0,94,0.06,,,0.10,meteohub,2013-05-09 20:33:00,
2013-05-09 16:38:00,60.1,58.3,29.88,West,268,0.0,2.0,94,0.06,,,0.10,meteohub,2013-05-09 20:38:00,
2013-05-09 16:43:00,59.7,57.9,29.88,West,268,0.0,0.0,94,0.06,,,0.11,meteohub,2013-05-09 20:43:00,
2013-05-09 16:48:00,60.1,58.3,29.88,West,268,0.0,0.0,94,0.07,,,0.12,meteohub,2013-05-09 20:48:00,
2013-05-09 16:53:00,60.3,58.5,29.88,West,268,1.0,0.0,94,0.05,,,0.12,meteohub,2013-05-09 20:53:00,
2013-05-09 16:58:00,59.9,58.1,29.88,West,268,0.0,1.0,94,0.05,,,0.13,meteohub,2013-05-09 20:58:00,
2013-05-09 17:04:00,59.7,58.3,29.88,West,268,0.0,1.0,95,0.05,,,0.13,meteohub,2013-05-09 21:04:00,
2013-05-09 17:08:00,60.1,58.6,29.88,West,268,0.0,1.0,95,0.05,,,0.13,meteohub,2013-05-09 21:08:00,
2013-05-09 17:14:00,59.7,58.3,29.88,West,268,0.0,1.0,95,0.06,,,0.14,meteohub,2013-05-09 21:14:00,
2013-05-09 17:18:00,60.1,58.6,29.88,West,268,0.0,1.0,95,0.06,,,0.14,meteohub,2013-05-09 21:18:00,
2013-05-09 17:24:00,60.3,58.8,29.88,West,268,0.0,1.0,95,0.04,,,0.14,meteohub,2013-05-09 21:24:00,
2013-05-09 17:29:00,60.1,58.6,29.88,West,268,0.0,0.0,95,0.04,,,0.14,meteohub,2013-05-09 21:29:00,
2013-05-09 17:34:00,60.3,58.8,29.87,West,268,0.0,0.0,95,0.04,,,0.14,meteohub,2013-05-09 21:34:00,
2013-05-09 17:39:00,60.3,58.8,29.87,West,268,0.0,0.0,95,0.03,,,0.14,meteohub,2013-05-09 21:39:00,
2013-05-09 17:44:00,60.3,58.8,29.87,West,268,0.0,0.0,95,0.03,,,0.14,meteohub,2013-05-09 21:44:00,
2013-05-09 17:49:00,59.9,58.5,29.88,West,268,0.0,0.0,95,0.02,,,0.14,meteohub,2013-05-09 21:49:00,
2013-05-09 17:54:00,59.7,58.3,29.87,West,268,0.0,1.0,95,0.02,,,0.14,meteohub,2013-05-09 21:54:00,
2013-05-09 17:59:00,59.9,58.5,29.87,West,268,0.0,1.0,95,0.01,,,0.14,meteohub,2013-05-09 21:59:00,
2013-05-09 18:04:00,60.1,58.6,29.87,West,268,0.0,1.0,95,0.01,,,0.14,meteohub,2013-05-09 22:04:00,
2013-05-09 18:09:00,60.3,58.8,29.87,West,268,0.0,0.0,95,0.01,,,0.14,meteohub,2013-05-09 22:09:00,
2013-05-09 18:14:00,60.3,58.8,29.87,West,268,0.0,0.0,95,0.00,,,0.14,meteohub,2013-05-09 22:14:00,
2013-05-09 18:19:00,60.4,59.4,29.87,West,268,0.0,0.0,96,0.00,,,0.14,meteohub,2013-05-09 22:19:00,
2013-05-09 18:24:00,60.4,59.4,29.86,West,268,0.0,0.0,96,0.00,,,0.14,meteohub,2013-05-09 22:24:00,
2013-05-09 18:29:00,59.7,58.3,29.86,West,268,0.0,0.0,95,0.00,,,0.14,meteohub,2013-05-09 22:29:00,
2013-05-09 18:34:00,59.7,58.3,29.86,West,268,0.0,0.0,95,0.00,,,0.14,meteohub,2013-05-09 22:34:00,
2013-05-09 18:39:00,59.7,58.3,29.86,West,268,0.0,0.0,95,0.00,,,0.14,meteohub,2013-05-09 22:39:00,
2013-05-09 18:44:00,59.7,58.6,29.86,West,268,0.0,0.0,96,0.00,,,0.14,meteohub,2013-05-09 22:44:00,
2013-05-09 18:49:00,59.7,58.6,29.86,West,268,0.0,0.0,96,0.00,,,0.14,meteohub,2013-05-09 22:49:00,
2013-05-09 18:54:00,59.7,58.3,29.87,West,268,0.0,0.0,95,0.00,,,0.14,meteohub,2013-05-09 22:54:00,
2013-05-09 18:59:00,59.7,58.6,29.86,SE,140,2.0,0.0,96,0.00,,,0.14,meteohub,2013-05-09 22:59:00,
2013-05-09 19:04:00,59.5,58.1,29.87,SE,126,0.0,1.0,95,0.00,,,0.14,meteohub,2013-05-09 23:04:00,
2013-05-09 19:09:00,59.5,58.1,29.87,SE,126,0.0,3.0,95,0.00,,,0.14,meteohub,2013-05-09 23:09:00,
2013-05-09 19:14:00,59.4,57.9,29.87,SE,126,1.0,3.0,95,0.00,,,0.14,meteohub,2013-05-09 23:14:00,
2013-05-09 19:19:00,59.0,57.6,29.87,SE,126,0.0,3.0,95,0.00,,,0.14,meteohub,2013-05-09 23:19:00,
2013-05-09 19:24:00,58.8,57.4,29.87,SE,134,1.0,3.0,95,0.00,,,0.14,meteohub,2013-05-09 23:24:00,
2013-05-09 19:29:00,58.6,57.2,29.87,SE,134,1.0,3.0,95,0.00,,,0.14,meteohub,2013-05-09 23:29:00,
2013-05-09 19:34:00,58.5,57.0,29.87,SE,134,0.0,3.0,95,0.00,,,0.14,meteohub,2013-05-09 23:34:00,
2013-05-09 19:39:00,58.5,57.0,29.88,SE,134,0.0,2.0,95,0.00,,,0.14,meteohub,2013-05-09 23:39:00,
2013-05-09 19:44:00,58.3,56.8,29.88,SE,134,0.0,2.0,95,0.00,,,0.14,meteohub,2013-05-09 23:44:00,
2013-05-09 19:49:00,58.3,56.8,29.88,SE,134,0.0,1.0,95,0.00,,,0.14,meteohub,2013-05-09 23:49:00,
2013-05-09 19:54:00,58.3,56.8,29.88,SE,134,0.0,0.0,95,0.00,,,0.14,meteohub,2013-05-09 23:54:00,
2013-05-09 19:59:00,58.3,56.8,29.87,SE,134,0.0,0.0,95,0.00,,,0.14,meteohub,2013-05-09 23:59:00,
2013-05-09 20:04:00,58.3,56.8,29.88,SE,134,0.0,0.0,95,0.00,,,0.14,meteohub,2013-05-10 00:04:00,
2013-05-09 20:09:00,58.3,56.8,29.87,SE,134,0.0,0.0,95,0.00,,,0.14,meteohub,2013-05-10 00:09:00,
2013-05-09 20:14:00,57.9,56.8,29.87,SE,134,0.0,2.0,96,0.00,,,0.14,meteohub,2013-05-10 00:14:00,
2013-05-09 20:19:00,57.9,56.8,29.87,SE,134,0.0,2.0,96,0.00,,,0.14,meteohub,2013-05-10 00:19:00,
2013-05-09 20:24:00,57.7,56.7,29.88,SE,134,0.0,2.0,96,0.00,,,0.14,meteohub,2013-05-10 00:24:00,
2013-05-09 20:29:00,57.7,56.7,29.88,SE,134,0.0,0.0,96,0.00,,,0.14,meteohub,2013-05-10 00:29:00,
2013-05-09 20:34:00,57.7,56.7,29.88,SE,134,0.0,0.0,96,0.00,,,0.14,meteohub,2013-05-10 00:34:00,
2013-05-09 20:39:00,57.6,56.5,29.88,SE,134,0.0,0.0,96,0.00,,,0.14,meteohub,2013-05-10 00:39:00,
2013-05-09 20:44:00,57.6,56.5,29.88,SE,134,0.0,0.0,96,0.00,,,0.14,meteohub,2013-05-10 00:44:00,
2013-05-09 20:49:00,57.7,56.7,29.88,SE,134,0.0,0.0,96,0.00,,,0.14,meteohub,2013-05-10 00:49:00,
2013-05-09 20:54:00,57.7,56.7,29.89,SE,134,0.0,0.0,96,0.00,,,0.14,meteohub,2013-05-10 00:54:00,
2013-05-09 20:59:00,57.6,56.5,29.89,SE,134,0.0,0.0,96,0.00,,,0.14,meteohub,2013-05-10 00:59:00,
2013-05-09 21:04:00,57.6,56.5,29.89,SE,134,0.0,0.0,96,0.00,,,0.14,meteohub,2013-05-10 01:04:00,
2013-05-09 21:09:00,57.4,56.3,29.90,SE,134,0.0,0.0,96,0.00,,,0.14,meteohub,2013-05-10 01:09:00,
2013-05-09 21:14:00,57.4,56.3,29.90,SE,134,0.0,0.0,96,0.00,,,0.14,meteohub,2013-05-10 01:14:00,
2013-05-09 21:19:00,57.4,56.3,29.90,SE,134,0.0,0.0,96,0.00,,,0.14,meteohub,2013-05-10 01:19:00,
2013-05-09 21:24:00,57.4,56.3,29.89,SE,134,0.0,0.0,96,0.00,,,0.14,meteohub,2013-05-10 01:24:00,
2013-05-09 21:29:00,57.0,55.9,29.90,SE,134,0.0,0.0,96,0.00,,,0.14,meteohub,2013-05-10 01:29:00,
2013-05-09 21:34:00,57.0,55.9,29.89,SE,134,0.0,0.0,96,0.00,,,0.14,meteohub,2013-05-10 01:34:00,
2013-05-09 21:39:00,57.0,55.9,29.89,SE,134,0.0,0.0,96,0.00,,,0.14,meteohub,2013-05-10 01:39:00,
2013-05-09 21:44:00,57.0,55.9,29.90,SE,134,0.0,0.0,96,0.00,,,0.14,meteohub,2013-05-10 01:44:00,
2013-05-09 21:49:00,57.0,55.9,29.90,SE,134,0.0,0.0,96,0.00,,,0.14,meteohub,2013-05-10 01:49:00,
2013-05-09 21:54:00,57.0,55.9,29.90,SE,134,0.0,0.0,96,0.00,,,0.14,meteohub,2013-05-10 01:54:00,
2013-05-09 21:59:00,57.0,55.9,29.90,SE,134,0.0,0.0,96,0.00,,,0.14,meteohub,2013-05-10 01:59:00,
2013-05-09 22:04:00,57.2,56.1,29.90,SE,134,0.0,0.0,96,0.00,,,0.14,meteohub,2013-05-10 02:04:00,
2013-05-09 22:09:00,57.0,55.9,29.90,SE,134,0.0,0.0,96,0.00,,,0.14,meteohub,2013-05-10 02:09:00,
2013-05-09 22:14:00,57.2,56.1,29.90,SE,134,0.0,0.0,96,0.00,,,0.14,meteohub,2013-05-10 02:14:00,
2013-05-09 22:19:00,57.2,56.1,29.90,SE,134,0.0,0.0,96,0.00,,,0.14,meteohub,2013-05-10 02:19:00,
2013-05-09 22:24:00,57.2,56.1,29.90,SE,134,0.0,0.0,96,0.00,,,0.14,meteohub,2013-05-10 02:24:00,
2013-05-09 22:29:00,57.4,56.3,29.90,SE,134,0.0,0.0,96,0.00,,,0.14,meteohub,2013-05-10 02:29:00,
2013-05-09 22:34:00,57.4,56.3,29.90,SE,134,0.0,0.0,96,0.00,,,0.14,meteohub,2013-05-10 02:34:00,
2013-05-09 22:39:00,57.4,56.3,29.90,SE,134,0.0,0.0,96,0.00,,,0.14,meteohub,2013-05-10 02:39:00,
2013-05-09 22:44:00,57.4,56.3,29.89,SE,134,0.0,0.0,96,0.00,,,0.14,meteohub,2013-05-10 02:44:00,
2013-05-09 22:49:00,57.2,56.1,29.89,SE,134,0.0,1.0,96,0.00,,,0.14,meteohub,2013-05-10 02:49:00,
2013-05-09 22:54:00,57.0,55.9,29.89,SE,134,0.0,1.0,96,0.00,,,0.14,meteohub,2013-05-10 02:54:00,
2013-05-09 22:59:00,57.0,55.9,29.89,SE,134,0.0,1.0,96,0.00,,,0.14,meteohub,2013-05-10 02:59:00,
2013-05-09 23:04:00,57.0,55.9,29.89,SE,134,0.0,0.0,96,0.00,,,0.14,meteohub,2013-05-10 03:04:00,
2013-05-09 23:09:00,57.0,55.9,29.89,SE,134,0.0,0.0,96,0.01,,,0.15,meteohub,2013-05-10 03:09:00,
2013-05-09 23:14:00,57.0,55.9,29.89,SE,134,0.0,0.0,96,0.02,,,0.16,meteohub,2013-05-10 03:14:00,
2013-05-09 23:19:00,56.8,55.8,29.89,SE,134,0.0,0.0,96,0.02,,,0.16,meteohub,2013-05-10 03:19:00,
2013-05-09 23:24:00,56.8,55.8,29.89,SE,134,0.0,0.0,96,0.02,,,0.16,meteohub,2013-05-10 03:24:00,
2013-05-09 23:29:00,56.8,55.8,29.89,SE,134,0.0,0.0,96,0.03,,,0.17,meteohub,2013-05-10 03:29:00,
2013-05-09 23:34:00,56.8,55.9,29.89,SE,134,0.0,0.0,97,0.03,,,0.17,meteohub,2013-05-10 03:34:00,
2013-05-09 23:39:00,56.8,55.9,29.89,SE,134,0.0,0.0,97,0.03,,,0.17,meteohub,2013-05-10 03:39:00,
2013-05-09 23:44:00,56.8,55.9,29.89,SE,134,0.0,0.0,97,0.03,,,0.17,meteohub,2013-05-10 03:44:00,
2013-05-09 23:49:00,56.8,55.9,29.89,SE,134,0.0,0.0,97,0.03,,,0.17,meteohub,2013-05-10 03:49:00,
2013-05-09 23:54:00,56.7,55.6,29.89,SE,134,0.0,0.0,96,0.03,,,0.17,meteohub,2013-05-10 03:54:00,
2013-05-09 23:59:00,56.5,55.4,29.89,SE,134,0.0,0.0,96,0.03,,,0.17,meteohub,2013-05-10 03:59:00,